createdAt,value
2017-09-18T00:00:24.960Z,7.95
2017-09-18T00:02:53.953Z,7.30
2017-09-18T00:05:22.334Z,8.33
2017-09-18T00:07:50.664Z,7.40
2017-09-18T00:10:18.265Z,8.87
2017-09-18T00:12:45.828Z,6.80
2017-09-18T00:15:13.413Z,6.57
2017-09-18T00:17:41.736Z,6.97
2017-09-18T00:20:09.329Z,7.17
2017-09-18T00:22:36.892Z,6.70
2017-09-18T00:25:04.548Z,7.35
2017-09-18T00:27:32.876Z,6.20
2017-09-18T00:30:00.468Z,7.48
2017-09-18T00:32:28.027Z,8.17
2017-09-18T00:34:56.633Z,7.27
2017-09-18T00:37:24.192Z,6.30
2017-09-18T00:39:51.775Z,6.27
2017-09-18T00:42:20.107Z,5.80
2017-09-18T00:44:47.669Z,5.73
2017-09-18T00:47:15.253Z,5.97
2017-09-18T00:49:42.816Z,7.30
2017-09-18T00:52:10.405Z,6.30
2017-09-18T00:54:37.964Z,6.00
2017-09-18T00:57:05.553Z,5.80
2017-09-18T00:59:33.112Z,6.57
2017-09-18T01:02:00.701Z,6.40
2017-09-18T01:04:28.260Z,7.07
2017-09-18T01:06:56.277Z,7.85
2017-09-18T01:09:24.728Z,9.00
2017-09-18T01:11:53.492Z,8.93
2017-09-18T01:14:21.076Z,7.90
2017-09-18T01:16:48.648Z,8.40
2017-09-18T01:19:17.016Z,8.00
2017-09-18T01:21:44.845Z,9.40
2017-09-18T01:24:12.642Z,10.05
2017-09-18T01:26:41.994Z,10.30
2017-09-18T01:29:09.732Z,9.83
2017-09-18T01:31:38.092Z,10.50
2017-09-18T01:34:05.664Z,11.43
2017-09-18T01:36:33.322Z,11.33
2017-09-18T01:39:01.669Z,12.03
2017-09-18T01:41:29.552Z,11.50
2017-09-18T01:43:57.932Z,12.40
2017-09-18T01:46:25.492Z,14.60
2017-09-18T01:48:54.803Z,15.05
2017-09-18T01:51:22.652Z,15.07
2017-09-18T01:53:50.216Z,17.00
2017-09-18T01:56:17.785Z,15.80
2017-09-18T01:58:45.383Z,20.03
2017-09-18T02:01:13.740Z,23.30
2017-09-18T02:03:41.316Z,29.33
2017-09-18T02:06:09.677Z,30.80
2017-09-18T02:08:37.255Z,34.93
2017-09-18T02:11:04.869Z,33.15
2017-09-18T02:13:32.440Z,41.63
2017-09-18T02:16:00.033Z,36.00
2017-09-18T02:18:28.365Z,31.10
2017-09-18T02:20:55.969Z,24.53
2017-09-18T02:23:24.309Z,20.13
2017-09-18T02:25:52.308Z,20.17
2017-09-18T02:28:19.884Z,23.87
2017-09-18T02:30:48.224Z,18.53
2017-09-18T02:33:15.821Z,17.23
2017-09-18T02:35:44.157Z,15.60
2017-09-18T02:38:11.752Z,15.80
2017-09-18T02:40:39.325Z,23.23
2017-09-18T02:43:07.688Z,26.15
2017-09-18T02:45:35.257Z,19.40
2017-09-18T02:48:03.621Z,21.97
2017-09-18T02:50:31.192Z,30.10
2017-09-18T02:52:58.784Z,23.47
2017-09-18T02:55:26.356Z,22.53
2017-09-18T02:57:55.820Z,27.43
2017-09-18T03:00:23.384Z,17.20
2017-09-18T03:02:50.978Z,15.47
2017-09-18T03:05:18.552Z,17.07
2017-09-18T03:07:46.264Z,15.47
2017-09-18T03:10:13.832Z,11.55
2017-09-18T03:12:42.162Z,11.90
2017-09-18T03:15:09.757Z,10.57
2017-09-18T03:17:37.322Z,8.27
2017-09-18T03:20:05.685Z,10.65
2017-09-18T03:22:33.247Z,19.83
2017-09-18T03:25:00.840Z,25.34
2017-09-18T03:27:29.180Z,25.20
2017-09-18T03:29:56.772Z,21.00
2017-09-18T03:32:25.108Z,20.80
2017-09-18T03:34:53.836Z,19.17
2017-09-18T03:37:22.176Z,19.77
2017-09-18T03:39:49.768Z,16.80
2017-09-18T03:42:17.344Z,17.27
2017-09-18T03:44:45.721Z,14.63
2017-09-18T03:47:14.060Z,12.17
2017-09-18T03:49:41.656Z,11.97
2017-09-18T03:52:10.007Z,13.23
2017-09-18T03:54:37.601Z,10.73
2017-09-18T03:57:05.940Z,10.03
2017-09-18T03:59:33.538Z,9.07
2017-09-18T04:02:01.868Z,9.70
2017-09-18T04:04:29.641Z,10.17
2017-09-18T04:06:57.204Z,8.30
2017-09-18T04:09:24.768Z,9.70
2017-09-18T04:11:54.792Z,8.43
2017-09-18T04:14:22.353Z,7.90
2017-09-18T04:16:49.948Z,6.30
2017-09-18T04:19:18.277Z,7.80
2017-09-18T04:21:45.877Z,7.25
2017-09-18T04:24:14.212Z,7.97
2017-09-18T04:26:41.801Z,7.80
2017-09-18T04:29:09.362Z,7.30
2017-09-18T04:31:36.948Z,6.97
2017-09-18T04:34:05.280Z,6.97
2017-09-18T04:36:32.865Z,5.78
2017-09-18T04:39:00.428Z,6.68
2017-09-18T04:41:28.016Z,7.28
2017-09-18T04:43:55.800Z,6.67
2017-09-18T04:46:23.388Z,8.10
2017-09-18T04:48:50.960Z,9.03
2017-09-18T04:51:18.556Z,12.13
2017-09-18T04:53:46.916Z,12.07
2017-09-18T04:56:15.280Z,13.77
2017-09-18T04:58:42.847Z,14.20
2017-09-18T05:01:10.429Z,13.80
2017-09-18T05:03:38.793Z,19.45
2017-09-18T05:06:06.360Z,19.93
2017-09-18T05:08:33.951Z,19.80
2017-09-18T05:11:01.524Z,17.43
2017-09-18T05:13:29.121Z,15.77
2017-09-18T05:15:56.697Z,17.30
2017-09-18T05:18:24.292Z,16.37
2017-09-18T05:20:51.872Z,15.40
2017-09-18T05:23:19.469Z,14.37
2017-09-18T05:25:47.051Z,13.33
2017-09-18T05:28:14.644Z,14.13
2017-09-18T05:30:42.212Z,16.60
2017-09-18T05:33:09.808Z,16.70
2017-09-18T05:35:37.376Z,15.50
2017-09-18T05:38:04.989Z,17.42
2017-09-18T05:40:32.556Z,13.93
2017-09-18T05:43:00.125Z,13.88
2017-09-18T05:45:27.721Z,12.67
2017-09-18T05:47:57.003Z,13.53
2017-09-18T05:50:25.361Z,9.80
2017-09-18T05:52:54.817Z,10.85
2017-09-18T05:55:22.405Z,8.70
2017-09-18T05:57:50.733Z,9.27
2017-09-18T06:00:18.320Z,10.33
2017-09-18T06:02:45.888Z,10.17
2017-09-18T06:05:14.245Z,11.93
2017-09-18T06:07:41.820Z,16.00
2017-09-18T06:10:09.416Z,14.97
2017-09-18T06:12:36.988Z,15.80
2017-09-18T06:15:04.600Z,14.43
2017-09-18T06:17:32.172Z,10.87
2017-09-18T06:20:00.542Z,12.20
2017-09-18T06:22:28.137Z,12.57
2017-09-18T06:24:55.940Z,11.05
2017-09-18T06:27:23.542Z,14.00
2017-09-18T06:29:51.878Z,10.70
2017-09-18T06:32:19.453Z,12.00
2017-09-18T06:34:47.368Z,9.60
2017-09-18T06:37:14.945Z,11.60
2017-09-18T06:39:42.532Z,8.70
2017-09-18T06:42:10.096Z,8.90
2017-09-18T06:44:37.685Z,9.73
2017-09-18T06:47:05.248Z,6.70
2017-09-18T06:49:33.605Z,7.60
2017-09-18T06:52:02.675Z,8.64
2017-09-18T06:54:30.272Z,11.90
2017-09-18T06:56:57.836Z,10.40
2017-09-18T06:59:26.192Z,11.87
2017-09-18T07:01:56.198Z,13.65
2017-09-18T07:04:23.792Z,11.27
2017-09-18T07:06:51.596Z,15.07
2017-09-18T07:09:19.285Z,9.90
2017-09-18T07:11:46.853Z,10.85
2017-09-18T07:14:14.449Z,10.37
2017-09-18T07:16:42.021Z,12.43
2017-09-18T07:19:10.397Z,11.50
2017-09-18T07:21:44.141Z,8.23
2017-09-18T07:24:14.096Z,10.93
2017-09-18T07:26:42.581Z,13.17
2017-09-18T07:29:10.184Z,11.20
2017-09-18T07:31:37.749Z,11.77
2017-09-18T07:34:05.340Z,10.77
2017-09-18T07:36:32.912Z,8.50
2017-09-18T07:39:00.505Z,8.07
2017-09-18T07:41:28.841Z,9.30
2017-09-18T07:43:56.427Z,7.47
2017-09-18T07:46:23.996Z,7.45
2017-09-18T07:48:54.012Z,7.43
2017-09-18T07:51:21.631Z,7.00
2017-09-18T07:53:49.220Z,6.97
2017-09-18T07:56:16.792Z,5.93
2017-09-18T07:58:44.388Z,5.30
2017-09-18T08:01:12.016Z,5.05
2017-09-18T08:03:39.676Z,5.93
2017-09-18T08:06:07.244Z,6.50
2017-09-18T08:08:34.900Z,6.80
2017-09-18T08:11:02.473Z,6.83
2017-09-18T08:13:30.840Z,7.50
2017-09-18T08:15:59.173Z,6.80
2017-09-18T08:18:26.764Z,6.63
2017-09-18T08:20:55.916Z,7.57
2017-09-18T08:23:23.503Z,6.00
2017-09-18T08:25:51.298Z,6.60
2017-09-18T08:28:18.892Z,5.90
2017-09-18T08:30:47.221Z,5.17
2017-09-18T08:33:14.820Z,5.23
2017-09-18T08:35:43.156Z,4.97
2017-09-18T08:38:10.852Z,5.00
2017-09-18T08:40:38.421Z,6.00
2017-09-18T08:43:06.791Z,5.10
2017-09-18T08:45:34.357Z,3.97
2017-09-18T08:48:02.725Z,4.55
2017-09-18T08:50:30.292Z,4.93
2017-09-18T08:52:57.941Z,4.67
2017-09-18T08:55:25.664Z,4.20
2017-09-18T08:57:54.871Z,4.57
2017-09-18T09:00:22.554Z,4.20
2017-09-18T09:02:50.120Z,4.33
2017-09-18T09:05:17.703Z,4.17
2017-09-18T09:07:46.032Z,3.77
2017-09-18T09:10:13.620Z,3.60
2017-09-18T09:12:41.184Z,3.90
2017-09-18T09:15:09.584Z,4.00
2017-09-18T09:17:38.058Z,3.97
2017-09-18T09:20:05.648Z,4.90
2017-09-18T09:22:33.207Z,4.00
2017-09-18T09:25:01.003Z,3.80
2017-09-18T09:27:28.620Z,3.83
2017-09-18T09:29:56.972Z,3.70
2017-09-18T09:32:24.660Z,4.23
2017-09-18T09:34:53.944Z,3.80
2017-09-18T09:37:21.503Z,3.97
2017-09-18T09:39:49.104Z,4.07
2017-09-18T09:42:16.759Z,4.70
2017-09-18T09:44:45.261Z,4.50
2017-09-18T09:47:12.932Z,4.25
2017-09-18T09:49:40.599Z,4.23
2017-09-18T09:52:08.164Z,3.67
2017-09-18T09:54:35.764Z,4.03
2017-09-18T09:57:03.328Z,4.30
2017-09-18T09:59:30.891Z,4.37
2017-09-18T10:01:59.249Z,3.87
2017-09-18T10:04:26.824Z,3.90
2017-09-18T10:06:55.972Z,3.78
2017-09-18T10:09:23.577Z,4.53
2017-09-18T10:11:51.175Z,4.37
2017-09-18T10:14:18.754Z,4.87
2017-09-18T10:16:46.369Z,3.90
2017-09-18T10:19:13.995Z,4.67
2017-09-18T10:21:41.584Z,4.30
2017-09-18T10:24:09.256Z,4.00
2017-09-18T10:26:36.823Z,3.97
2017-09-18T10:29:05.184Z,4.15
2017-09-18T10:31:32.743Z,3.57
2017-09-18T10:34:00.332Z,3.42
2017-09-18T10:36:28.673Z,4.57
2017-09-18T10:38:56.269Z,3.50
2017-09-18T10:41:24.600Z,4.03
2017-09-18T10:43:53.311Z,3.30
2017-09-18T10:46:20.880Z,3.10
2017-09-18T10:48:48.437Z,3.80
2017-09-18T10:51:16.240Z,3.30
2017-09-18T10:53:43.860Z,3.40
2017-09-18T10:56:11.543Z,2.90
2017-09-18T10:58:39.900Z,2.97
2017-09-18T11:01:07.468Z,2.90
2017-09-18T11:03:35.057Z,3.17
2017-09-18T11:06:03.392Z,3.37
2017-09-18T11:08:31.095Z,2.90
2017-09-18T11:10:58.668Z,3.23
2017-09-18T11:13:26.292Z,4.03
2017-09-18T11:15:54.881Z,3.73
2017-09-18T11:18:22.543Z,3.90
2017-09-18T11:20:50.512Z,4.10
2017-09-18T11:23:18.168Z,4.10
2017-09-18T11:25:47.236Z,3.73
2017-09-18T11:28:14.820Z,3.27
2017-09-18T11:30:42.384Z,2.70
2017-09-18T11:33:10.752Z,2.87
2017-09-18T11:35:38.312Z,3.43
2017-09-18T11:38:05.908Z,3.20
2017-09-18T11:40:34.263Z,3.20
2017-09-18T11:43:02.064Z,3.80
2017-09-18T11:45:30.416Z,3.70
2017-09-18T11:47:58.752Z,4.12
2017-09-18T11:50:26.340Z,4.37
2017-09-18T11:52:54.977Z,3.20
2017-09-18T11:55:23.389Z,4.00
2017-09-18T11:57:50.952Z,4.03
2017-09-18T12:00:18.537Z,4.00
2017-09-18T12:02:46.129Z,3.80
2017-09-18T12:05:14.508Z,4.20
2017-09-18T12:07:42.840Z,3.67
2017-09-18T12:10:10.409Z,4.07
2017-09-18T12:12:37.991Z,4.35
2017-09-18T12:15:06.324Z,3.90
2017-09-18T12:17:34.024Z,4.20
2017-09-18T12:20:01.590Z,3.80
2017-09-18T12:22:29.175Z,4.20
2017-09-18T12:24:56.745Z,3.67
2017-09-18T12:27:24.440Z,3.23
2017-09-18T12:29:52.000Z,4.20
2017-09-18T12:32:19.582Z,3.73
2017-09-18T12:34:47.964Z,3.33
2017-09-18T12:37:15.544Z,4.70
2017-09-18T12:39:43.904Z,4.43
2017-09-18T12:42:11.567Z,3.83
2017-09-18T12:44:39.185Z,3.87
2017-09-18T12:47:06.758Z,2.90
2017-09-18T12:49:34.356Z,2.80
2017-09-18T12:52:01.994Z,2.90
2017-09-18T12:54:29.575Z,3.33
2017-09-18T12:56:57.960Z,3.60
2017-09-18T12:59:25.572Z,3.30
2017-09-18T13:01:54.365Z,2.93
2017-09-18T13:04:21.972Z,2.77
2017-09-18T13:06:49.594Z,2.47
2017-09-18T13:09:17.160Z,2.50
2017-09-18T13:11:44.908Z,2.40
2017-09-18T13:14:12.473Z,2.28
2017-09-18T13:16:40.036Z,2.03
2017-09-18T13:19:07.640Z,2.22
2017-09-18T13:21:35.485Z,2.43
2017-09-18T13:24:03.226Z,2.50
2017-09-18T13:26:30.891Z,2.30
2017-09-18T13:28:58.592Z,2.33
2017-09-18T13:31:26.161Z,2.27
2017-09-18T13:33:55.852Z,1.70
2017-09-18T13:36:23.488Z,2.03
2017-09-18T13:38:51.120Z,1.67
2017-09-18T13:41:18.683Z,1.60
2017-09-18T13:43:46.307Z,1.67
2017-09-18T13:46:13.975Z,1.33
2017-09-18T13:48:41.661Z,2.10
2017-09-18T13:51:10.020Z,1.80
2017-09-18T13:53:37.589Z,2.00
2017-09-18T13:56:05.955Z,1.60
2017-09-18T13:58:33.549Z,1.80
2017-09-18T14:01:01.122Z,2.23
2017-09-18T14:03:28.708Z,2.10
2017-09-18T14:05:56.276Z,1.70
2017-09-18T14:08:23.860Z,1.80
2017-09-18T14:10:53.168Z,1.83
2017-09-18T14:13:20.764Z,1.87
2017-09-18T14:15:48.324Z,2.27
2017-09-18T14:18:15.944Z,1.63
2017-09-18T14:20:43.527Z,1.90
2017-09-18T14:23:11.880Z,1.90
2017-09-18T14:25:39.468Z,1.60
2017-09-18T14:28:07.824Z,1.90
2017-09-18T14:30:35.496Z,1.70
2017-09-18T14:33:03.829Z,1.40
2017-09-18T14:35:31.416Z,1.90
2017-09-18T14:37:58.976Z,1.70
2017-09-18T14:40:26.648Z,2.00
2017-09-18T14:42:55.854Z,1.57
2017-09-18T14:45:23.899Z,1.77
2017-09-18T14:47:51.460Z,1.73
2017-09-18T14:50:19.024Z,1.83
2017-09-18T14:52:46.611Z,1.50
2017-09-18T14:55:14.206Z,1.80
2017-09-18T14:57:41.768Z,2.50
2017-09-18T15:00:09.360Z,1.70
2017-09-18T15:02:36.924Z,1.60
2017-09-18T15:05:04.518Z,2.28
2017-09-18T15:07:32.843Z,2.07
2017-09-18T15:10:00.445Z,2.34
2017-09-18T15:12:29.828Z,2.47
2017-09-18T15:14:57.392Z,2.73
2017-09-18T15:17:24.976Z,2.40
2017-09-18T15:19:54.132Z,2.55
2017-09-18T15:22:21.720Z,2.27
2017-09-18T15:24:49.283Z,2.80
2017-09-18T15:27:17.663Z,2.30
2017-09-18T15:29:45.333Z,1.90
2017-09-18T15:32:12.928Z,1.90
2017-09-18T15:34:40.488Z,1.73
2017-09-18T15:37:08.080Z,2.65
2017-09-18T15:39:35.639Z,1.77
2017-09-18T15:42:03.233Z,1.67
2017-09-18T15:44:30.891Z,1.93
2017-09-18T15:46:58.489Z,1.80
2017-09-18T15:49:26.058Z,1.20
2017-09-18T15:51:54.939Z,1.60
2017-09-18T15:54:23.284Z,1.67
2017-09-18T15:56:50.871Z,2.13
2017-09-18T15:59:19.212Z,1.50
2017-09-18T16:01:47.565Z,1.57
2017-09-18T16:04:15.132Z,2.10
2017-09-18T16:06:42.832Z,1.70
2017-09-18T16:09:10.491Z,1.73
2017-09-18T16:11:38.157Z,1.90
2017-09-18T16:14:05.725Z,1.60
2017-09-18T16:16:33.476Z,1.47
2017-09-18T16:19:01.057Z,1.90
2017-09-18T16:21:29.389Z,2.23
2017-09-18T16:23:56.996Z,1.62
2017-09-18T16:26:25.333Z,2.00
2017-09-18T16:28:53.976Z,2.05
2017-09-18T16:31:22.305Z,1.63
2017-09-18T16:33:49.991Z,1.93
2017-09-18T16:36:17.556Z,1.83
2017-09-18T16:38:45.144Z,1.97
2017-09-18T16:41:12.730Z,1.65
2017-09-18T16:43:40.323Z,1.50
2017-09-18T16:46:07.892Z,1.70
2017-09-18T16:48:35.477Z,1.73
2017-09-18T16:51:03.808Z,1.60
2017-09-18T16:53:31.391Z,1.63
2017-09-18T16:55:58.956Z,2.15
2017-09-18T16:58:27.308Z,1.87
2017-09-18T17:00:55.823Z,2.10
2017-09-18T17:03:23.772Z,1.90
2017-09-18T17:05:51.335Z,2.30
2017-09-18T17:08:18.941Z,2.07
2017-09-18T17:10:46.509Z,1.87
2017-09-18T17:13:14.101Z,2.20
2017-09-18T17:15:41.664Z,2.00
2017-09-18T17:18:09.348Z,2.50
2017-09-18T17:20:37.013Z,2.00
2017-09-18T17:23:04.673Z,1.80
2017-09-18T17:25:32.337Z,2.70
2017-09-18T17:27:59.998Z,2.50
2017-09-18T17:30:27.660Z,2.40
2017-09-18T17:32:55.860Z,2.57
2017-09-18T17:35:24.296Z,2.67
2017-09-18T17:37:51.860Z,3.30
2017-09-18T17:40:19.455Z,3.53
2017-09-18T17:42:47.816Z,3.60
2017-09-18T17:45:15.488Z,3.80
2017-09-18T17:47:43.052Z,3.10
2017-09-18T17:50:10.704Z,4.03
2017-09-18T17:52:38.272Z,4.10
2017-09-18T17:55:05.928Z,3.30
2017-09-18T17:57:33.592Z,3.53
2017-09-18T18:00:01.256Z,2.90
2017-09-18T18:02:28.819Z,3.20
2017-09-18T18:04:56.413Z,3.87
2017-09-18T18:07:23.984Z,3.00
2017-09-18T18:09:51.572Z,2.90
2017-09-18T18:12:19.136Z,3.60
2017-09-18T18:14:46.724Z,3.90
2017-09-18T18:17:14.284Z,4.40
2017-09-18T18:19:41.936Z,3.50
2017-09-18T18:22:09.496Z,3.90
2017-09-18T18:24:38.568Z,4.73
2017-09-18T18:27:06.164Z,18.13
2017-09-18T18:29:35.258Z,13.93
2017-09-18T18:32:02.849Z,7.40
2017-09-18T18:34:30.454Z,7.43
2017-09-18T18:36:58.057Z,5.53
2017-09-18T18:39:26.388Z,6.50
2017-09-18T18:41:56.228Z,6.53
2017-09-18T18:44:23.788Z,6.50
2017-09-18T18:46:51.347Z,5.27
2017-09-18T18:49:18.933Z,5.30
2017-09-18T18:51:47.260Z,4.80
2017-09-18T18:54:15.652Z,4.50
2017-09-18T18:56:43.217Z,4.43
2017-09-18T18:59:10.815Z,5.17
2017-09-18T19:01:39.140Z,4.70
2017-09-18T19:04:06.897Z,5.17
2017-09-18T19:06:34.477Z,4.83
2017-09-18T19:09:02.239Z,4.30
2017-09-18T19:11:30.107Z,5.43
2017-09-18T19:13:59.289Z,5.40
2017-09-18T19:16:26.888Z,6.00
2017-09-18T19:18:56.700Z,6.40
2017-09-18T19:21:24.330Z,5.67
2017-09-18T19:23:51.903Z,5.80
2017-09-18T19:26:19.584Z,7.33
2017-09-18T19:28:48.911Z,6.00
2017-09-18T19:31:16.519Z,5.43
2017-09-18T19:33:44.087Z,5.80
2017-09-18T19:36:11.685Z,5.93
2017-09-18T19:38:40.059Z,5.87
2017-09-18T19:41:08.490Z,5.18
2017-09-18T19:43:36.105Z,4.93
2017-09-18T19:46:04.527Z,5.40
2017-09-18T19:48:32.235Z,5.20
2017-09-18T19:50:59.876Z,5.77
2017-09-18T19:53:27.440Z,5.43
2017-09-18T19:55:55.964Z,5.50
2017-09-18T19:58:24.319Z,5.07
2017-09-18T20:00:51.984Z,5.50
2017-09-18T20:03:19.567Z,5.60
2017-09-18T20:05:47.909Z,5.43
2017-09-18T20:08:20.315Z,5.17
2017-09-18T20:10:48.648Z,5.97
2017-09-18T20:13:16.546Z,5.40
2017-09-18T20:15:44.113Z,5.87
2017-09-18T20:18:11.677Z,5.10
2017-09-18T20:20:40.480Z,5.27
2017-09-18T20:23:08.813Z,5.62
2017-09-18T20:25:36.537Z,5.70
2017-09-18T20:28:04.106Z,5.43
2017-09-18T20:30:31.692Z,5.40
2017-09-18T20:32:59.617Z,5.70
2017-09-18T20:35:28.064Z,5.43
2017-09-18T20:37:56.752Z,6.10
2017-09-18T20:40:24.517Z,6.60
2017-09-18T20:42:53.768Z,6.00
2017-09-18T20:45:21.445Z,6.40
2017-09-18T20:47:49.032Z,5.43
2017-09-18T20:50:16.599Z,6.23
2017-09-18T20:52:44.220Z,7.70
2017-09-18T20:55:11.781Z,6.07
2017-09-18T20:57:39.385Z,5.40
2017-09-18T21:00:06.953Z,6.60
2017-09-18T21:02:34.802Z,6.53
2017-09-18T21:05:02.374Z,6.80
2017-09-18T21:07:29.932Z,6.47
2017-09-18T21:09:57.599Z,6.63
2017-09-18T21:12:25.160Z,6.95
2017-09-18T21:14:54.861Z,7.10
2017-09-18T21:17:22.428Z,7.33
2017-09-18T21:19:50.368Z,7.80
2017-09-18T21:22:17.955Z,6.00
2017-09-18T21:24:45.515Z,6.90
2017-09-18T21:27:13.109Z,6.85
2017-09-18T21:29:41.463Z,7.10
2017-09-18T21:32:09.128Z,7.03
2017-09-18T21:34:36.784Z,6.70
2017-09-18T21:37:04.381Z,8.77
2017-09-18T21:39:32.008Z,7.90
2017-09-18T21:42:00.356Z,7.35
2017-09-18T21:44:27.924Z,7.30
2017-09-18T21:46:56.616Z,8.27
2017-09-18T21:49:24.180Z,7.50
2017-09-18T21:54:25.724Z,7.80
2017-09-18T21:56:55.273Z,8.20
2017-09-18T21:59:22.836Z,6.97
2017-09-18T22:01:50.400Z,8.17
2017-09-18T22:04:22.646Z,6.50
2017-09-18T22:06:53.068Z,7.40
2017-09-18T22:09:22.734Z,7.53
2017-09-18T22:11:54.939Z,7.43
2017-09-18T22:14:27.473Z,7.60
2017-09-18T22:16:59.331Z,7.30
2017-09-18T22:19:29.331Z,7.70
2017-09-18T22:21:58.993Z,7.20
2017-09-18T22:24:27.513Z,7.45
2017-09-18T22:26:56.801Z,7.03
2017-09-18T22:29:25.873Z,6.63
2017-09-18T22:31:55.830Z,6.68
2017-09-18T22:34:23.759Z,7.43
2017-09-18T22:36:51.480Z,7.47
2017-09-18T22:39:19.843Z,6.70
2017-09-18T22:41:47.428Z,6.90
2017-09-18T22:44:16.068Z,7.33
2017-09-18T22:46:43.636Z,7.70
2017-09-18T22:49:11.425Z,7.10
2017-09-18T22:51:39.756Z,7.70
2017-09-18T22:54:07.325Z,8.45
2017-09-18T22:56:35.012Z,7.30
2017-09-18T22:59:02.573Z,8.07
2017-09-18T23:01:30.185Z,7.30
2017-09-18T23:03:58.260Z,8.03
2017-09-18T23:06:25.820Z,7.57
2017-09-18T23:08:55.975Z,8.20
2017-09-18T23:11:23.541Z,8.40
2017-09-18T23:13:51.134Z,7.40
2017-09-18T23:16:19.461Z,9.13
2017-09-18T23:18:47.056Z,9.43
2017-09-18T23:21:14.619Z,9.90
2017-09-18T23:23:42.996Z,10.47
2017-09-18T23:26:10.565Z,9.60
2017-09-18T23:28:39.036Z,9.73
2017-09-18T23:31:06.608Z,9.17
2017-09-18T23:33:34.944Z,10.50
2017-09-18T23:36:02.533Z,8.87
2017-09-18T23:38:30.200Z,10.27
2017-09-18T23:40:57.795Z,11.03
2017-09-18T23:43:25.365Z,10.13
2017-09-18T23:45:54.920Z,10.65
2017-09-18T23:48:22.480Z,9.57
2017-09-18T23:50:50.157Z,10.70
2017-09-18T23:53:17.732Z,12.50
2017-09-18T23:55:46.092Z,12.50
2017-09-18T23:58:13.666Z,11.52
